createdAt,value
2022-12-14T00:01:34.792Z,8.47
2022-12-14T00:04:01.456Z,8.77
2022-12-14T00:06:31.035Z,10.63
2022-12-14T00:08:59.985Z,9.23
2022-12-14T00:11:27.511Z,9.90
2022-12-14T00:13:59.659Z,8.10
2022-12-14T00:16:28.676Z,10.60
2022-12-14T00:18:57.191Z,9.40
2022-12-14T00:21:24.674Z,9.47
2022-12-14T00:23:53.126Z,9.93
2022-12-14T00:26:21.408Z,8.03
2022-12-14T00:28:50.112Z,8.87
2022-12-14T00:31:17.250Z,10.27
2022-12-14T00:33:44.511Z,11.83
2022-12-14T00:36:12.433Z,8.20
2022-12-14T00:38:40.229Z,10.23
2022-12-14T00:41:07.703Z,10.67
2022-12-14T00:43:34.468Z,9.27
2022-12-14T00:46:01.187Z,11.17
2022-12-14T00:48:28.555Z,9.03
2022-12-14T00:50:56.052Z,9.83
2022-12-14T00:53:24.247Z,8.90
2022-12-14T00:55:51.304Z,9.60
2022-12-14T00:58:20.938Z,9.13
2022-12-14T01:00:48.573Z,9.00
2022-12-14T01:03:15.699Z,8.60
2022-12-14T01:05:49.080Z,10.20
2022-12-14T01:08:16.734Z,10.30
2022-12-14T01:10:43.801Z,10.07
2022-12-14T01:13:11.477Z,8.33
2022-12-14T01:15:38.273Z,9.20
2022-12-14T01:18:05.062Z,8.10
2022-12-14T01:20:31.754Z,7.77
2022-12-14T01:22:58.809Z,9.90
2022-12-14T01:25:25.921Z,10.73
2022-12-14T01:27:53.316Z,8.77
2022-12-14T01:30:20.370Z,9.47
2022-12-14T01:32:47.539Z,7.87
2022-12-14T01:35:14.552Z,8.77
2022-12-14T01:37:41.806Z,8.67
2022-12-14T01:40:08.972Z,7.20
2022-12-14T01:42:36.838Z,9.37
2022-12-14T01:45:04.750Z,8.00
2022-12-14T01:47:36.415Z,8.47
2022-12-14T01:50:06.663Z,8.50
2022-12-14T01:52:48.259Z,9.73
2022-12-14T01:55:33.398Z,10.77
2022-12-14T01:58:33.383Z,8.87
2022-12-14T02:01:02.629Z,9.10
2022-12-14T02:03:38.882Z,6.57
2022-12-14T02:06:28.465Z,9.77
2022-12-14T02:08:57.151Z,8.33
2022-12-14T02:11:42.610Z,8.27
2022-12-14T02:14:09.341Z,7.30
2022-12-14T02:16:36.711Z,9.07
2022-12-14T02:19:03.787Z,8.33
2022-12-14T02:21:51.848Z,7.40
2022-12-14T02:24:24.772Z,7.27
2022-12-14T02:26:52.249Z,8.07
2022-12-14T02:29:43.927Z,7.60
2022-12-14T02:32:19.516Z,9.90
2022-12-14T02:35:03.972Z,6.10
2022-12-14T02:37:31.021Z,7.23
2022-12-14T02:40:28.229Z,7.60
2022-12-14T02:43:13.634Z,8.50
2022-12-14T02:45:40.708Z,7.40
2022-12-14T02:48:07.731Z,8.43
2022-12-14T02:50:49.304Z,7.67
2022-12-14T02:53:21.972Z,6.83
2022-12-14T02:55:52.013Z,7.33
2022-12-14T02:58:24.147Z,7.53
2022-12-14T03:00:51.290Z,6.13
2022-12-14T03:03:17.959Z,8.20
2022-12-14T03:06:02.078Z,8.57
2022-12-14T03:08:32.621Z,6.70
2022-12-14T03:11:04.031Z,7.03
2022-12-14T03:13:50.002Z,7.23
2022-12-14T03:16:27.171Z,8.67
2022-12-14T03:18:59.612Z,7.33
2022-12-14T03:21:33.684Z,7.77
2022-12-14T03:24:07.479Z,7.23
2022-12-14T03:26:45.638Z,6.80
2022-12-14T03:29:22.978Z,7.00
2022-12-14T03:31:52.736Z,8.23
2022-12-14T03:34:25.740Z,6.40
2022-12-14T03:37:18.562Z,6.97
2022-12-14T03:39:46.964Z,7.73
2022-12-14T03:42:49.801Z,6.90
2022-12-14T03:45:40.920Z,7.47
2022-12-14T03:48:07.963Z,8.10
2022-12-14T03:50:46.233Z,5.63
2022-12-14T03:53:13.281Z,6.60
2022-12-14T03:56:00.139Z,6.83
2022-12-14T03:58:36.443Z,6.33
2022-12-14T04:01:03.523Z,6.50
2022-12-14T04:03:55.840Z,6.30
2022-12-14T04:06:22.901Z,9.07
2022-12-14T04:09:20.496Z,6.70
2022-12-14T04:12:28.744Z,7.17
2022-12-14T04:15:37.021Z,8.93
2022-12-14T04:18:26.096Z,7.50
2022-12-14T04:21:01.085Z,5.47
2022-12-14T04:23:59.354Z,7.33
2022-12-14T04:26:30.449Z,6.37
2022-12-14T04:29:25.546Z,6.57
2022-12-14T04:32:05.426Z,9.50
2022-12-14T04:34:35.829Z,6.57
2022-12-14T04:37:08.749Z,7.33
2022-12-14T04:40:17.891Z,7.10
2022-12-14T04:42:59.434Z,6.90
2022-12-14T04:45:40.835Z,6.03
2022-12-14T04:48:24.948Z,6.20
2022-12-14T04:50:58.450Z,8.27
2022-12-14T04:53:28.808Z,9.43
2022-12-14T04:56:06.113Z,6.97
2022-12-14T04:58:34.022Z,7.13
2022-12-14T05:01:15.427Z,6.87
2022-12-14T05:03:51.198Z,7.33
2022-12-14T05:07:00.885Z,6.17
2022-12-14T05:09:57.977Z,8.07
2022-12-14T05:12:28.832Z,9.63
2022-12-14T05:15:23.894Z,9.63
2022-12-14T05:17:52.702Z,8.60
2022-12-14T05:20:23.046Z,8.23
2022-12-14T05:22:50.582Z,17.27
2022-12-14T05:25:17.404Z,14.23
2022-12-14T05:27:44.601Z,12.13
2022-12-14T05:30:11.983Z,9.60
2022-12-14T05:32:39.841Z,8.77
2022-12-14T05:35:07.311Z,6.33
2022-12-14T05:37:34.067Z,7.33
2022-12-14T05:40:01.141Z,8.10
2022-12-14T05:42:28.237Z,7.13
2022-12-14T05:44:55.323Z,7.37
2022-12-14T05:47:22.376Z,6.53
2022-12-14T05:49:49.557Z,9.33
2022-12-14T05:52:16.778Z,7.47
2022-12-14T05:54:43.965Z,6.57
2022-12-14T05:57:10.949Z,9.97
2022-12-14T05:59:38.029Z,7.17
2022-12-14T06:02:05.240Z,8.37
2022-12-14T06:04:32.721Z,8.53
2022-12-14T06:06:59.497Z,7.93
2022-12-14T06:09:26.654Z,7.63
2022-12-14T06:11:53.673Z,7.10
2022-12-14T06:14:20.838Z,6.70
2022-12-14T06:16:47.849Z,6.63
2022-12-14T06:19:15.635Z,8.00
2022-12-14T06:21:43.677Z,8.80
2022-12-14T06:24:12.043Z,7.27
2022-12-14T06:26:42.662Z,7.73
2022-12-14T06:29:15.862Z,7.93
2022-12-14T06:31:42.640Z,9.90
2022-12-14T06:34:10.000Z,7.40
2022-12-14T06:36:39.345Z,7.80
2022-12-14T06:39:10.529Z,7.87
2022-12-14T06:41:37.658Z,6.70
2022-12-14T06:44:05.878Z,7.73
2022-12-14T06:46:33.212Z,8.10
2022-12-14T06:48:59.905Z,10.20
2022-12-14T06:51:26.595Z,8.13
2022-12-14T06:53:54.635Z,7.47
2022-12-14T06:56:23.072Z,8.97
2022-12-14T06:58:50.182Z,10.40
2022-12-14T07:01:20.423Z,10.77
2022-12-14T07:03:50.764Z,8.63
2022-12-14T07:06:17.865Z,8.03
2022-12-14T07:08:45.213Z,8.40
2022-12-14T07:11:14.587Z,8.43
2022-12-14T07:13:41.775Z,9.60
2022-12-14T07:16:14.848Z,8.80
2022-12-14T07:18:41.978Z,9.00
2022-12-14T07:21:11.561Z,8.80
2022-12-14T07:23:39.605Z,7.30
2022-12-14T07:26:06.214Z,7.93
2022-12-14T07:28:33.558Z,8.03
2022-12-14T07:31:00.694Z,8.47
2022-12-14T07:33:28.600Z,8.83
2022-12-14T07:36:13.700Z,8.20
2022-12-14T07:38:41.351Z,7.33
2022-12-14T07:41:22.065Z,7.93
2022-12-14T07:43:50.223Z,12.23
2022-12-14T07:46:20.375Z,6.87
2022-12-14T07:48:49.203Z,7.40
2022-12-14T07:51:18.745Z,8.67
2022-12-14T07:53:46.207Z,7.07
2022-12-14T07:56:34.618Z,9.50
2022-12-14T07:59:03.140Z,9.53
2022-12-14T08:01:35.077Z,8.87
2022-12-14T08:04:09.961Z,9.40
2022-12-14T08:06:37.627Z,6.70
2022-12-14T08:09:05.050Z,8.10
2022-12-14T08:11:32.172Z,8.83
2022-12-14T08:14:00.983Z,10.17
2022-12-14T08:16:28.723Z,9.03
2022-12-14T08:18:57.315Z,9.50
2022-12-14T08:21:24.781Z,9.63
2022-12-14T08:23:52.828Z,6.40
2022-12-14T08:26:20.041Z,7.50
2022-12-14T08:28:48.528Z,9.67
2022-12-14T08:31:18.347Z,8.60
2022-12-14T08:33:46.592Z,9.50
2022-12-14T08:36:13.676Z,8.33
2022-12-14T08:38:41.217Z,10.53
2022-12-14T08:41:12.775Z,10.50
2022-12-14T08:43:40.553Z,9.33
2022-12-14T08:46:11.032Z,8.03
2022-12-14T08:48:38.239Z,11.30
2022-12-14T08:51:07.789Z,8.07
2022-12-14T08:53:36.143Z,8.07
2022-12-14T08:56:13.896Z,9.07
2022-12-14T08:58:41.453Z,7.13
2022-12-14T09:01:15.121Z,8.43
2022-12-14T09:03:42.758Z,9.30
2022-12-14T09:06:11.458Z,7.80
2022-12-14T09:08:38.718Z,8.80
2022-12-14T09:11:06.583Z,8.47
2022-12-14T09:13:34.293Z,10.20
2022-12-14T09:16:04.519Z,8.93
2022-12-14T09:18:32.693Z,10.30
2022-12-14T09:21:00.142Z,11.27
2022-12-14T09:23:29.803Z,11.60
2022-12-14T09:26:02.568Z,9.70
2022-12-14T09:28:30.133Z,8.23
2022-12-14T09:30:59.535Z,10.10
2022-12-14T09:33:27.857Z,10.43
2022-12-14T09:36:04.031Z,9.33
2022-12-14T09:38:33.070Z,7.80
2022-12-14T09:41:06.011Z,8.43
2022-12-14T09:43:47.493Z,10.23
2022-12-14T09:46:21.953Z,10.83
2022-12-14T09:48:49.749Z,8.57
2022-12-14T09:51:19.414Z,9.67
2022-12-14T09:53:50.278Z,9.67
2022-12-14T09:56:21.528Z,9.13
2022-12-14T09:58:59.565Z,11.50
2022-12-14T10:01:26.670Z,12.50
2022-12-14T10:04:29.227Z,10.93
2022-12-14T10:07:11.534Z,14.23
2022-12-14T10:10:05.694Z,10.47
2022-12-14T10:12:54.066Z,8.23
2022-12-14T10:15:34.329Z,9.83
2022-12-14T10:18:01.378Z,10.23
2022-12-14T10:20:48.284Z,11.83
2022-12-14T10:23:22.936Z,12.43
2022-12-14T10:25:54.312Z,12.20
2022-12-14T10:28:40.570Z,12.50
2022-12-14T10:31:13.716Z,11.63
2022-12-14T10:33:44.819Z,10.13
2022-12-14T10:36:19.542Z,13.40
2022-12-14T10:38:59.906Z,10.37
2022-12-14T10:41:32.449Z,14.37
2022-12-14T10:43:59.543Z,12.73
2022-12-14T10:46:55.740Z,11.77
2022-12-14T10:49:49.674Z,14.50
2022-12-14T10:52:23.140Z,13.40
2022-12-14T10:54:55.762Z,12.43
2022-12-14T10:57:26.390Z,17.03
2022-12-14T11:00:07.842Z,13.77
2022-12-14T11:02:58.516Z,15.77
2022-12-14T11:05:43.261Z,13.77
2022-12-14T11:08:11.620Z,11.93
2022-12-14T11:10:39.644Z,11.00
2022-12-14T11:13:15.595Z,12.50
2022-12-14T11:15:42.838Z,12.10
2022-12-14T11:18:15.855Z,11.17
2022-12-14T11:21:02.317Z,13.47
2022-12-14T11:23:40.011Z,13.60
2022-12-14T11:26:25.562Z,12.93
2022-12-14T11:28:57.510Z,12.10
2022-12-14T11:31:38.137Z,17.67
2022-12-14T11:34:23.218Z,11.63
2022-12-14T11:36:50.249Z,12.07
2022-12-14T11:39:25.127Z,13.07
2022-12-14T11:41:52.392Z,10.20
2022-12-14T11:44:19.475Z,11.63
2022-12-14T11:47:00.077Z,15.23
2022-12-14T11:49:27.193Z,12.33
2022-12-14T11:52:04.483Z,12.23
2022-12-14T11:54:39.225Z,13.10
2022-12-14T11:57:14.698Z,11.10
2022-12-14T11:59:46.656Z,11.30
2022-12-14T12:02:21.809Z,15.77
2022-12-14T12:04:54.954Z,12.33
2022-12-14T12:07:32.102Z,12.00
2022-12-14T12:10:17.899Z,13.00
2022-12-14T12:12:59.582Z,13.27
2022-12-14T12:15:37.542Z,15.00
2022-12-14T12:18:20.088Z,12.10
2022-12-14T12:21:09.779Z,13.50
2022-12-14T12:23:59.040Z,14.23
2022-12-14T12:26:28.734Z,11.70
2022-12-14T12:29:40.397Z,13.17
2022-12-14T12:32:20.570Z,12.07
2022-12-14T12:35:12.432Z,14.10
2022-12-14T12:37:53.316Z,13.87
2022-12-14T12:40:29.101Z,15.73
2022-12-14T12:43:26.353Z,11.93
2022-12-14T12:46:01.492Z,12.67
2022-12-14T12:48:38.728Z,12.03
2022-12-14T12:51:12.320Z,13.63
2022-12-14T12:53:43.986Z,14.43
2022-12-14T12:56:16.899Z,12.37
2022-12-14T12:58:52.185Z,12.43
2022-12-14T13:01:32.725Z,12.90
2022-12-14T13:04:03.818Z,12.43
2022-12-14T13:06:32.262Z,12.00
2022-12-14T13:09:05.971Z,12.40
2022-12-14T13:11:38.428Z,11.90
2022-12-14T13:14:32.219Z,12.37
2022-12-14T13:17:01.205Z,13.17
2022-12-14T13:19:54.547Z,13.00
2022-12-14T13:22:33.255Z,14.50
2022-12-14T13:25:12.572Z,13.27
2022-12-14T13:28:12.502Z,13.87
2022-12-14T13:31:26.466Z,12.67
2022-12-14T13:33:53.608Z,20.70
2022-12-14T13:36:46.484Z,14.67
2022-12-14T13:39:50.648Z,14.73
2022-12-14T13:42:40.280Z,11.80
2022-12-14T13:45:20.026Z,16.13
2022-12-14T13:47:54.112Z,14.23
2022-12-14T13:50:36.689Z,15.97
2022-12-14T13:53:24.919Z,14.40
2022-12-14T13:56:02.206Z,16.23
2022-12-14T13:58:36.696Z,14.97
2022-12-14T14:01:03.855Z,18.20
2022-12-14T14:03:37.308Z,15.23
2022-12-14T14:06:16.243Z,16.57
2022-12-14T14:08:44.493Z,15.47
2022-12-14T14:11:38.925Z,15.53
2022-12-14T14:14:38.539Z,14.03
2022-12-14T14:17:37.281Z,15.13
2022-12-14T14:20:29.955Z,15.60
2022-12-14T14:23:15.919Z,14.87
2022-12-14T14:26:10.127Z,17.63
2022-12-14T14:28:38.156Z,16.27
2022-12-14T14:31:05.718Z,16.50
2022-12-14T14:33:45.561Z,16.60
2022-12-14T14:36:26.901Z,15.30
2022-12-14T14:38:55.996Z,16.80
2022-12-14T14:41:32.663Z,16.30
2022-12-14T14:44:03.002Z,15.33
2022-12-14T14:46:49.551Z,14.73
2022-12-14T14:49:25.781Z,15.17
2022-12-14T14:51:52.891Z,14.97
2022-12-14T14:54:56.085Z,16.57
2022-12-14T14:57:55.220Z,14.33
2022-12-14T15:00:26.070Z,15.57
2022-12-14T15:02:54.346Z,15.30
2022-12-14T15:05:43.398Z,16.07
2022-12-14T15:08:20.237Z,15.53
2022-12-14T15:10:48.237Z,16.97
2022-12-14T15:13:24.926Z,17.70
2022-12-14T15:15:54.873Z,18.37
2022-12-14T15:18:22.541Z,16.43
2022-12-14T15:21:12.985Z,15.53
2022-12-14T15:23:45.353Z,19.00
2022-12-14T15:26:28.894Z,15.57
2022-12-14T15:28:58.268Z,15.03
2022-12-14T15:31:39.816Z,14.63
2022-12-14T15:34:08.149Z,15.50
2022-12-14T15:36:42.035Z,15.63
2022-12-14T15:39:38.191Z,18.07
2022-12-14T15:42:11.264Z,18.07
2022-12-14T15:44:40.220Z,16.70
2022-12-14T15:47:07.873Z,17.27
2022-12-14T15:49:34.936Z,17.27
2022-12-14T15:52:02.932Z,18.10
2022-12-14T15:54:29.713Z,22.07
2022-12-14T15:56:58.769Z,16.63
2022-12-14T15:59:25.863Z,18.40
2022-12-14T16:02:07.390Z,19.43
2022-12-14T16:04:36.983Z,16.33
2022-12-14T16:07:09.518Z,16.00
2022-12-14T16:09:50.147Z,19.83
2022-12-14T16:12:45.209Z,19.40
2022-12-14T16:15:22.391Z,19.03
2022-12-14T16:17:52.774Z,20.43
2022-12-14T16:20:25.894Z,19.73
2022-12-14T16:23:05.305Z,16.83
2022-12-14T16:25:34.889Z,18.03
2022-12-14T16:28:29.528Z,18.67
2022-12-14T16:31:03.448Z,19.73
2022-12-14T16:33:33.318Z,19.80
2022-12-14T16:36:27.832Z,17.00
2022-12-14T16:38:55.099Z,20.30
2022-12-14T16:41:42.531Z,17.43
2022-12-14T16:44:40.711Z,20.83
2022-12-14T16:47:33.411Z,16.73
2022-12-14T16:50:00.941Z,19.73
2022-12-14T16:52:31.530Z,18.40
2022-12-14T16:55:27.329Z,18.17
2022-12-14T16:57:58.495Z,18.97
2022-12-14T17:00:29.825Z,19.00
2022-12-14T17:03:02.152Z,20.23
2022-12-14T17:05:53.941Z,22.10
2022-12-14T17:08:20.762Z,18.20
2022-12-14T17:10:47.620Z,18.63
2022-12-14T17:13:14.490Z,20.23
2022-12-14T17:16:04.144Z,22.60
2022-12-14T17:18:39.784Z,24.00
2022-12-14T17:21:08.570Z,21.27
2022-12-14T17:23:38.675Z,21.40
2022-12-14T17:26:05.430Z,20.50
2022-12-14T17:28:34.548Z,21.27
2022-12-14T17:31:02.931Z,23.17
2022-12-14T17:33:31.598Z,22.60
2022-12-14T17:35:58.988Z,20.83
2022-12-14T17:38:26.181Z,24.33
2022-12-14T17:40:56.504Z,22.03
2022-12-14T17:43:27.235Z,21.63
2022-12-14T17:45:55.156Z,23.13
2022-12-14T17:48:21.942Z,21.17
2022-12-14T17:50:49.879Z,20.80
2022-12-14T17:53:20.756Z,21.03
2022-12-14T17:55:47.812Z,25.77
2022-12-14T17:58:14.488Z,22.83
2022-12-14T18:00:59.681Z,23.33
2022-12-14T18:03:29.434Z,22.53
2022-12-14T18:05:57.468Z,20.10
2022-12-14T18:08:26.507Z,21.47
2022-12-14T18:11:02.246Z,23.10
2022-12-14T18:13:31.704Z,21.53
2022-12-14T18:16:00.500Z,22.83
2022-12-14T18:18:29.343Z,23.13
2022-12-14T18:21:00.317Z,25.37
2022-12-14T18:23:28.614Z,25.73
2022-12-14T18:25:58.245Z,24.33
2022-12-14T18:28:25.749Z,26.30
2022-12-14T18:31:07.491Z,22.80
2022-12-14T18:33:35.236Z,23.37
2022-12-14T18:36:02.500Z,24.43
2022-12-14T18:38:29.573Z,22.87
2022-12-14T18:40:58.581Z,24.47
2022-12-14T18:43:27.885Z,21.23
2022-12-14T18:45:55.806Z,22.93
2022-12-14T18:48:24.063Z,26.10
2022-12-14T18:50:52.517Z,19.63
2022-12-14T18:53:21.526Z,22.53
2022-12-14T18:55:49.049Z,26.37
2022-12-14T18:58:27.291Z,25.70
2022-12-14T19:00:57.421Z,23.47
2022-12-14T19:03:25.262Z,28.90
2022-12-14T19:05:52.356Z,25.57
2022-12-14T19:08:19.051Z,24.80
2022-12-14T19:10:48.055Z,25.80
2022-12-14T19:13:23.437Z,26.43
2022-12-14T19:15:52.743Z,28.23
2022-12-14T19:18:19.551Z,28.33
2022-12-14T19:20:46.369Z,25.70
2022-12-14T19:23:17.757Z,27.37
2022-12-14T19:25:45.112Z,26.00
2022-12-14T19:28:30.909Z,24.93
2022-12-14T19:30:59.112Z,32.30
2022-12-14T19:33:26.788Z,33.10
2022-12-14T19:35:54.036Z,42.13
2022-12-14T19:38:20.911Z,42.57
2022-12-14T19:41:03.714Z,37.03
2022-12-14T19:43:31.353Z,32.17
2022-12-14T19:45:58.884Z,28.47
2022-12-14T19:48:26.018Z,32.10
2022-12-14T19:50:52.716Z,30.87
2022-12-14T19:53:27.545Z,34.63
2022-12-14T19:55:54.717Z,30.83
2022-12-14T19:58:22.844Z,29.23
2022-12-14T20:00:50.809Z,28.17
2022-12-14T20:03:18.262Z,32.63
2022-12-14T20:05:53.248Z,38.57
2022-12-14T20:08:20.226Z,34.47
2022-12-14T20:10:47.673Z,31.17
2022-12-14T20:13:15.026Z,30.37
2022-12-14T20:15:48.411Z,28.73
2022-12-14T20:18:15.508Z,29.60
2022-12-14T20:20:42.621Z,29.07
2022-12-14T20:23:09.751Z,28.20
2022-12-14T20:25:36.552Z,27.47
2022-12-14T20:28:03.718Z,26.23
2022-12-14T20:30:30.955Z,30.47
2022-12-14T20:32:58.103Z,30.33
2022-12-14T20:35:24.986Z,29.33
2022-12-14T20:37:55.892Z,28.27
2022-12-14T20:40:25.985Z,31.13
2022-12-14T20:42:54.181Z,34.43
2022-12-14T20:45:20.891Z,28.10
2022-12-14T20:47:47.972Z,25.53
2022-12-14T20:50:15.103Z,27.13
2022-12-14T20:52:42.280Z,33.13
2022-12-14T20:55:09.217Z,32.57
2022-12-14T20:57:36.029Z,27.23
2022-12-14T21:00:03.951Z,31.50
2022-12-14T21:02:30.772Z,33.07
2022-12-14T21:04:57.620Z,33.83
2022-12-14T21:07:26.469Z,32.13
2022-12-14T21:09:53.790Z,26.73
2022-12-14T21:12:20.877Z,32.63
2022-12-14T21:14:52.446Z,69.63
2022-12-14T21:17:20.678Z,35.37
2022-12-14T21:19:47.829Z,31.57
2022-12-14T21:22:17.441Z,36.87
2022-12-14T21:27:31.963Z,29.73
2022-12-14T21:30:00.005Z,28.40
2022-12-14T21:32:26.674Z,31.13
2022-12-14T21:34:53.463Z,31.43
2022-12-14T21:37:20.826Z,33.03
2022-12-14T21:39:54.580Z,34.07
2022-12-14T21:42:23.733Z,32.33
2022-12-14T21:44:52.111Z,30.63
2022-12-14T21:47:27.629Z,36.07
2022-12-14T21:49:54.524Z,36.00
2022-12-14T21:52:23.576Z,34.93
2022-12-14T21:54:50.366Z,32.50
2022-12-14T21:57:40.878Z,30.53
2022-12-14T22:00:09.333Z,31.77
2022-12-14T22:02:36.644Z,31.80
2022-12-14T22:05:04.496Z,31.47
2022-12-14T22:07:33.925Z,29.87
2022-12-14T22:10:01.414Z,27.73
2022-12-14T22:12:28.288Z,30.10
2022-12-14T22:14:55.213Z,28.23
2022-12-14T22:17:22.281Z,29.93
2022-12-14T22:19:50.791Z,31.97
2022-12-14T22:22:17.964Z,29.50
2022-12-14T22:24:47.396Z,30.80
2022-12-14T22:27:14.943Z,31.57
2022-12-14T22:29:42.071Z,33.43
2022-12-14T22:32:11.701Z,30.60
2022-12-14T22:34:38.974Z,30.77
2022-12-14T22:37:05.889Z,30.57
2022-12-14T22:39:32.973Z,32.17
2022-12-14T22:42:00.256Z,30.70
2022-12-14T22:44:27.411Z,27.93
2022-12-14T22:46:54.200Z,28.07
2022-12-14T22:49:21.404Z,24.80
2022-12-14T22:51:48.619Z,29.97
2022-12-14T22:54:22.203Z,28.87
2022-12-14T22:57:16.914Z,27.60
2022-12-14T23:00:16.636Z,31.13
2022-12-14T23:02:48.175Z,27.27
2022-12-14T23:05:15.817Z,28.77
2022-12-14T23:07:42.661Z,27.70
2022-12-14T23:10:28.004Z,25.43
2022-12-14T23:13:13.945Z,29.13
2022-12-14T23:15:59.816Z,26.73
2022-12-14T23:18:45.901Z,30.10
2022-12-14T23:21:31.844Z,31.60
2022-12-14T23:24:17.851Z,28.77
2022-12-14T23:27:09.134Z,28.00
2022-12-14T23:29:55.762Z,28.20
2022-12-14T23:32:41.657Z,31.23
2022-12-14T23:35:27.012Z,29.83
2022-12-14T23:38:13.065Z,24.90
2022-12-14T23:40:58.563Z,29.83
2022-12-14T23:43:44.570Z,24.27
2022-12-14T23:46:30.475Z,26.17
2022-12-14T23:49:16.461Z,26.77
2022-12-14T23:52:01.721Z,31.07
2022-12-14T23:54:47.136Z,25.93
2022-12-14T23:57:33.100Z,29.73
